AGROMETEOROLOŠKI PORTAL
Vinorodna pokrajina

Temelj dobrega kmetovanja.

Izpis lokacij s podatki meritev in opazovanj za Severovzhodna Slovenija

Pregled minimalnih nočnih temperatur med 13.4.2024 od 22:00 in 14.4.2024 do 10:00 (zapri pregled)
Severovzhodna Slovenija
Lokacija Nadmorska višina Lega Višina meritve senzorja Datum in čas meritve Dosežena min. temperatura RH Veter (m/s) Temp. rosišča Temp. mokrega termometra
Dravinjski vrh 304 m Z 2 m 14.4.2024 06:30 14,1 70,1 1,3 8,7 11,2
Godemarci 212 m JV 50 cm 14.4.2024 06:00 8,2 99,5 8,1 8,2
Godemarci 212 m JV 2 m 14.4.2024 06:30 7,8 99,8 7,8 7,8
Litmerk - bionomija in RLP 314 m JZ 2 m 14.4.2024 08:30 15,1 66,7 9,0 11,7
Maribor - BTŠ 276 m J 2 m 14.4.2024 06:30 8,6 94,9 0,7 7,8 8,2
Meranovo 501 m JV 2 m 14.4.2024 06:30 16,4 50,2 6,0 10,9
Moškanjci 213 m 2 m 14.4.2024 05:30 7,8 93,0 1,4 6,7 7,3
Pohorski dvor 313 m V 2 m 14.4.2024 05:00 10,3 82,5 7,5 8,8
Ritoznoj 402 m JV 2 m 14.4.2024 06:30 14,4 64,3 7,8 10,8
Savci 245 m JZ 2 m 14.4.2024 06:30 8,3 96,0 7,7 8,0
Selnica ob Dravi 311 m SV 2 m 14.4.2024 03:30 12,8 81,3 1,7 9,7 11,1
Selo 299 m J 2 m 14.4.2024 06:30 13,2 82,6 10,3 11,6
Stročja vas 240 m SV 2 m 14.4.2024 05:30 12,2 76,5 0,9 8,2 10,1
Špičnik 338 m 2 m 14.4.2024 06:30 8,2 100,0 8,2 8,2
Vidonci 337 m JV 2 m 14.4.2024 06:30 9,3 95,1 8,6 8,9
Vitomarci 299 m SV 2 m 14.4.2024 06:30 11,4 91,9 10,1 10,7
Zbigovci - RLP 299 m Z 2 m 14.4.2024 06:00 11,9 85,7 9,6 10,6
Zimica 296 m Z 2 m 14.4.2024 06:00 10,8 92,7 9,7 10,2
GAČNIK ARSO 291 m 2 m 14.4.2024 07:00 8,9 95,0 0,6 8,1 8,5
JERUZALEM - ARSO 335 m 2 m 14.4.2024 06:30 14,6 68,0 8,8 11,4
LENDAVA - TERME ARSO 161 m 2 m 14.4.2024 07:00 9,6 94,0 0,8 8,7 9,1
MARIBOR - LETALIŠČE ARSO 264 m 2 m 14.4.2024 06:00 8,0 92,0 1,7 6,8 7,4
MARIBOR - VRBANSKI PLATO ARSO 274 m 2 m 14.4.2024 06:30 9,0 92,0 1,7 7,8 8,4
MARINČA VAS - ARSO 272 m 2 m 14.4.2024 06:30 6,4 98,0 6,1 6,3
MURSKA SOBOTA - RAKIČAN ARSO 184 m 2 m 14.4.2024 06:30 8,1 97,0 1,4 7,7 7,9
MURSKA SOBOTA - RAKIČAN ARSO 184 m 5 cm 14.4.2024 06:00 5,9 97,0 1,4 5,5 5,7
PTUJ - ARSO 222 m 2 m 14.4.2024 06:30 7,5 98,0 1,1 7,2 7,4
SOTINSKI BREG ARSO 415 m 2 m 14.4.2024 05:00 14,0 75,0 2,8 9,7 11,6
Šentilj DRSI 300 m 2 m 14.4.2024 05:30 10,0 93,0 0,0 8,9 9,4
Postaje, katerih podatke prikazujemo na portalu, so postaje proizvajalca Adcon Telemetry in Pessl (UVHVVR/MKGP), postaje ARSO in postaje DRSI.

IZJAVA O OMEJITVI ODGOVORNOSTI: Uprava Republike Slovenije za varno hrano, veterinarstvo in varstvo rastlin (Uprava) skupaj z Opazovalno napovedovalno službo zdravstvenega varstva rastlin skrbi za nemoteno delovanje in vzdrževanje meteoroloških podatkov iz mreže agrometeoroloških postaj (Adcon Telemety). Agrometeorološki podatki, ki so objavljeni na tej strani, so zgolj informativne narave. Za morebitne vsebinske napake, do katerih lahko pride zaradi tehničnih težav pri vzdrževanju mreže, napak merilne opreme ali drugih nepredvidljivih vzrokov, napak pri vnosu, posodabljanja vsebin, Uprava ne prevzema odgovornosti, kakor tudi ne zaradi nepravilnega delovanja in/ali nedostopnosti vsebine teh spletnih strani. Uprava tudi ne prevzema odgovornosti za kakršnokoli neposredno ali posredno izgubo oziroma škodo, materialno in nematerialno, ki bi nastala zaradi dostopa, uporabe ali odločitve, sprejete na podlagi informacij, objavljenih na teh spletnih straneh, kakor tudi ne zaradi nepravilnega delovanja in/ali nedostopnosti vsebine teh spletnih strani. Uprava si pridržuje pravico do spremembe oziroma umika vsebine, deloma ali v celoti, brez predhodne najave. Vsak poskus nepooblaščenega spreminjanja ali poškodovanja spletnih strani, kot tudi nepooblaščen dostop do informacij mimo spletnih strani in do drugih vsebin, je kaznivo dejanje. Pri uporabi vsebin, objavljenih na portalu, je potrebno navesti vir podatkov (UVHVVR, Agrometeorološki portal Slovenije) in upoštevati avtorske pravice.